createdAt,value
2024-05-09T00:01:10.856Z,1.50
2024-05-09T00:04:16.059Z,1.70
2024-05-09T00:07:21.252Z,1.30
2024-05-09T00:10:34.578Z,1.45
2024-05-09T00:13:42.244Z,1.25
2024-05-09T00:16:50.337Z,1.43
2024-05-09T00:19:55.348Z,1.40
2024-05-09T00:23:00.434Z,1.33
2024-05-09T00:26:05.537Z,1.30
2024-05-09T00:29:10.543Z,1.30
2024-05-09T00:32:18.413Z,1.20
2024-05-09T00:35:23.872Z,1.10
2024-05-09T00:38:28.943Z,1.00
2024-05-09T00:41:34.066Z,0.90
2024-05-09T00:44:39.127Z,0.90
2024-05-09T00:47:48.949Z,0.90
2024-05-09T00:50:55.918Z,0.93
2024-05-09T00:54:00.958Z,1.08
2024-05-09T00:57:06.522Z,1.25
2024-05-09T01:00:22.556Z,1.10
2024-05-09T01:03:38.463Z,1.20
2024-05-09T01:06:43.821Z,1.00
2024-05-09T01:09:48.898Z,1.00
2024-05-09T01:12:54.210Z,1.00
2024-05-09T01:15:59.202Z,0.90
2024-05-09T01:19:07.195Z,1.00
2024-05-09T01:22:15.240Z,1.10
2024-05-09T01:25:23.747Z,0.90
2024-05-09T01:28:28.758Z,1.05
2024-05-09T01:31:33.742Z,1.20
2024-05-09T01:34:38.875Z,1.20
2024-05-09T01:37:43.894Z,1.20
2024-05-09T01:40:51.754Z,1.10
2024-05-09T01:43:56.761Z,1.38
2024-05-09T01:47:05.522Z,1.40
2024-05-09T01:50:11.098Z,1.40
2024-05-09T01:53:17.210Z,1.50
2024-05-09T01:56:25.080Z,1.52
2024-05-09T01:59:30.328Z,1.63
2024-05-09T02:02:35.411Z,1.50
2024-05-09T02:05:40.584Z,1.77
2024-05-09T02:08:45.742Z,1.93
2024-05-09T02:11:53.542Z,2.00
2024-05-09T02:14:58.456Z,1.90
2024-05-09T02:18:03.637Z,1.85
2024-05-09T02:21:08.989Z,2.00
2024-05-09T02:24:14.364Z,1.90
2024-05-09T02:27:21.916Z,1.98
2024-05-09T02:30:37.707Z,1.80
2024-05-09T02:33:47.339Z,1.83
2024-05-09T02:36:57.530Z,1.80
2024-05-09T02:39:59.918Z,1.90
2024-05-09T02:43:14.950Z,1.80
2024-05-09T02:46:17.607Z,1.98
2024-05-09T02:49:22.843Z,1.70
2024-05-09T02:52:25.227Z,1.90
2024-05-09T02:55:30.327Z,1.73
2024-05-09T02:58:37.914Z,1.80
2024-05-09T03:01:40.388Z,2.00
2024-05-09T03:04:45.737Z,1.80
2024-05-09T03:07:48.122Z,1.80
2024-05-09T03:10:54.965Z,1.80
2024-05-09T03:14:00.139Z,2.13
2024-05-09T03:17:05.258Z,1.77
2024-05-09T03:20:14.842Z,2.08
2024-05-09T03:23:26.819Z,2.00
2024-05-09T03:26:29.462Z,1.80
2024-05-09T03:29:37.319Z,1.70
2024-05-09T03:32:42.490Z,1.50
2024-05-09T03:35:48.634Z,1.73
2024-05-09T03:38:54.116Z,1.87
2024-05-09T03:41:59.201Z,1.90
2024-05-09T03:45:07.275Z,1.73
2024-05-09T03:48:09.981Z,1.70
2024-05-09T03:51:15.361Z,1.60
2024-05-09T03:54:19.004Z,2.00
2024-05-09T03:57:24.226Z,1.70
2024-05-09T04:00:36.887Z,1.70
2024-05-09T04:03:44.253Z,1.70
2024-05-09T04:06:49.705Z,1.73
2024-05-09T04:09:54.864Z,1.67
2024-05-09T04:12:57.210Z,1.97
2024-05-09T04:16:04.912Z,1.40
2024-05-09T04:19:07.753Z,1.58
2024-05-09T04:22:13.266Z,1.60
2024-05-09T04:25:17.441Z,1.60
2024-05-09T04:28:23.853Z,1.60
2024-05-09T04:31:29.545Z,1.50
2024-05-09T04:34:34.592Z,1.65
2024-05-09T04:37:37.627Z,1.50
2024-05-09T04:40:42.872Z,1.60
2024-05-09T04:43:45.302Z,1.50
2024-05-09T04:46:53.149Z,1.60
2024-05-09T04:49:55.911Z,1.58
2024-05-09T04:53:00.892Z,1.60
2024-05-09T04:56:05.362Z,1.20
2024-05-09T04:59:10.416Z,1.67
2024-05-09T05:02:15.500Z,1.60
2024-05-09T05:05:21.520Z,1.50
2024-05-09T05:08:24.096Z,1.50
2024-05-09T05:11:29.211Z,1.47
2024-05-09T05:14:31.626Z,1.47
2024-05-09T05:17:39.584Z,1.42
2024-05-09T05:20:42.238Z,1.30
2024-05-09T05:23:50.304Z,1.60
2024-05-09T05:26:52.836Z,1.57
2024-05-09T05:29:57.795Z,1.30
2024-05-09T05:33:54.109Z,1.40
2024-05-09T05:36:59.224Z,1.23
2024-05-09T05:40:04.412Z,1.40
2024-05-09T05:43:09.721Z,2.33
2024-05-09T05:46:16.689Z,1.30
2024-05-09T05:49:19.874Z,1.60
2024-05-09T05:52:27.735Z,1.85
2024-05-09T05:56:12.688Z,1.40
2024-05-09T05:59:25.674Z,1.30
2024-05-09T06:02:45.790Z,1.20
2024-05-09T06:05:54.040Z,1.30
2024-05-09T06:08:59.438Z,1.40
2024-05-09T06:12:04.784Z,1.60
2024-05-09T06:15:07.850Z,1.40
2024-05-09T06:18:16.091Z,1.53
2024-05-09T06:21:18.612Z,1.20
2024-05-09T06:24:26.182Z,1.58
2024-05-09T06:27:29.655Z,1.30
2024-05-09T06:30:40.656Z,1.20
2024-05-09T06:33:44.847Z,1.23
2024-05-09T06:36:52.471Z,1.35
2024-05-09T06:39:57.614Z,1.10
2024-05-09T06:43:03.964Z,1.20
2024-05-09T06:46:13.612Z,1.30
2024-05-09T06:49:19.127Z,1.20
2024-05-09T06:52:24.705Z,1.42
2024-05-09T06:55:46.739Z,1.30
2024-05-09T06:58:58.695Z,1.70
2024-05-09T07:07:19.332Z,1.13
2024-05-09T07:10:34.831Z,1.20
2024-05-09T07:13:50.821Z,1.20
2024-05-09T07:17:10.189Z,1.70
2024-05-09T07:24:08.662Z,1.60
2024-05-09T07:27:11.018Z,1.65
2024-05-09T07:30:27.110Z,1.20
2024-05-09T07:33:36.214Z,1.30
2024-05-09T07:36:41.414Z,1.20
2024-05-09T07:39:46.422Z,1.30
2024-05-09T07:42:54.592Z,1.55
2024-05-09T07:46:28.317Z,1.35
2024-05-09T07:53:32.653Z,1.50
2024-05-09T08:00:26.818Z,1.20
2024-05-09T08:03:40.372Z,1.30
2024-05-09T08:06:43.233Z,1.33
2024-05-09T08:09:59.385Z,1.40
2024-05-09T08:13:03.135Z,1.10
2024-05-09T08:16:12.376Z,1.05
2024-05-09T08:19:19.517Z,1.00
2024-05-09T08:22:26.141Z,1.10
2024-05-09T08:25:30.963Z,1.13
2024-05-09T08:28:39.267Z,1.10
2024-05-09T08:31:44.795Z,1.20
2024-05-09T08:34:54.260Z,1.10
2024-05-09T08:38:01.840Z,0.98
2024-05-09T08:41:33.060Z,1.33
2024-05-09T08:44:37.274Z,1.00
2024-05-09T08:47:42.451Z,0.90
2024-05-09T08:59:58.077Z,1.00
2024-05-09T09:03:07.822Z,1.00
2024-05-09T09:16:39.134Z,1.10
2024-05-09T09:20:48.539Z,1.10
2024-05-09T09:24:27.714Z,0.83
2024-05-09T09:32:17.184Z,0.98
2024-05-09T09:35:22.925Z,1.20
2024-05-09T09:38:33.770Z,1.00
2024-05-09T09:41:52.256Z,1.30
2024-05-09T09:45:04.690Z,0.93
2024-05-09T09:48:18.385Z,1.13
2024-05-09T09:51:30.629Z,1.02
2024-05-09T09:55:12.438Z,1.23
2024-05-09T09:58:34.010Z,0.90
2024-05-09T10:02:28.221Z,1.10
2024-05-09T10:10:49.185Z,0.80
2024-05-09T10:13:52.108Z,1.10
2024-05-09T10:17:08.253Z,1.00
2024-05-09T10:20:21.850Z,1.00
2024-05-09T10:23:32.462Z,1.85
2024-05-09T10:26:40.143Z,1.05
2024-05-09T10:29:58.531Z,1.10
2024-05-09T10:33:02.428Z,1.00
2024-05-09T10:36:13.203Z,1.00
2024-05-09T10:39:25.837Z,1.00
2024-05-09T10:42:42.165Z,1.10
2024-05-09T10:45:59.578Z,1.10
2024-05-09T10:49:07.246Z,0.70
2024-05-09T10:52:13.192Z,0.80
2024-05-09T10:55:57.961Z,0.90
2024-05-09T10:59:28.950Z,0.90
2024-05-09T11:02:32.216Z,0.90
2024-05-09T11:05:42.915Z,1.00
2024-05-09T11:08:47.388Z,0.90
2024-05-09T11:12:16.075Z,1.10
2024-05-09T11:15:21.663Z,1.10
2024-05-09T11:18:30.675Z,1.00
2024-05-09T11:26:51.568Z,1.15
2024-05-09T11:35:32.093Z,1.48
2024-05-09T11:38:34.976Z,1.40
2024-05-09T11:41:44.604Z,1.37
2024-05-09T11:44:55.243Z,1.10
2024-05-09T11:48:29.992Z,1.20
2024-05-09T11:59:40.993Z,1.80
2024-05-09T12:02:46.507Z,1.52
2024-05-09T12:05:49.035Z,1.40
2024-05-09T12:08:59.606Z,1.50
2024-05-09T12:12:06.000Z,1.60
2024-05-09T12:15:14.897Z,1.43
2024-05-09T12:18:21.738Z,1.20
2024-05-09T12:21:26.939Z,1.55
2024-05-09T12:24:32.162Z,1.10
2024-05-09T12:27:37.477Z,1.50
2024-05-09T12:30:41.939Z,1.40
2024-05-09T12:33:49.995Z,1.40
2024-05-09T12:36:52.670Z,1.40
2024-05-09T12:44:24.966Z,1.80
2024-05-09T12:47:30.931Z,1.70
2024-05-09T12:51:06.071Z,1.52
2024-05-09T12:54:22.099Z,1.40
2024-05-09T12:57:34.724Z,1.65
2024-05-09T13:00:38.674Z,1.40
2024-05-09T13:03:46.291Z,1.80
2024-05-09T13:07:11.680Z,1.50
2024-05-09T13:10:25.527Z,1.70
2024-05-09T13:13:52.943Z,2.00
2024-05-09T13:17:08.722Z,1.50
2024-05-09T13:20:18.932Z,1.50
2024-05-09T13:23:33.760Z,1.60
2024-05-09T13:27:01.920Z,1.45
2024-05-09T13:39:46.536Z,1.60
2024-05-09T14:02:20.276Z,1.80
2024-05-09T14:05:46.984Z,3.72
2024-05-09T14:08:52.400Z,1.55
2024-05-09T14:11:57.948Z,1.70
2024-05-09T14:15:05.933Z,1.65
2024-05-09T14:18:12.518Z,1.37
2024-05-09T14:21:19.104Z,1.38
2024-05-09T14:24:22.148Z,1.20
2024-05-09T14:27:29.601Z,1.27
2024-05-09T14:30:37.799Z,1.15
2024-05-09T14:33:45.755Z,1.40
2024-05-09T14:36:50.562Z,1.30
2024-05-09T14:39:59.820Z,1.48
2024-05-09T14:43:10.225Z,1.20
2024-05-09T14:46:21.928Z,1.40
2024-05-09T14:49:51.217Z,1.37
2024-05-09T14:52:54.337Z,1.50
2024-05-09T14:55:59.936Z,1.30
2024-05-09T14:59:05.017Z,1.30
2024-05-09T15:02:15.231Z,1.27
2024-05-09T15:05:20.581Z,1.23
2024-05-09T15:08:33.549Z,1.30
2024-05-09T15:11:38.896Z,1.20
2024-05-09T15:14:47.886Z,1.52
2024-05-09T15:18:32.629Z,1.27
2024-05-09T15:21:46.008Z,1.27
2024-05-09T15:24:51.272Z,2.53
2024-05-09T15:27:56.780Z,1.45
2024-05-09T15:31:04.682Z,1.42
2024-05-09T15:34:14.047Z,1.70
2024-05-09T15:37:16.851Z,1.20
2024-05-09T15:40:31.765Z,1.40
2024-05-09T15:43:41.061Z,1.45
2024-05-09T15:47:16.965Z,1.30
2024-05-09T15:50:35.170Z,1.20
2024-05-09T15:54:01.252Z,1.30
2024-05-09T15:57:07.625Z,1.50
2024-05-09T16:00:21.445Z,1.50
2024-05-09T16:03:38.239Z,1.10
2024-05-09T16:06:46.954Z,1.80
2024-05-09T16:09:52.795Z,1.20
2024-05-09T16:12:58.354Z,1.35
2024-05-09T16:16:04.178Z,1.50
2024-05-09T16:19:06.784Z,1.80
2024-05-09T16:22:14.805Z,1.40
2024-05-09T16:25:18.576Z,1.17
2024-05-09T16:28:26.975Z,1.42
2024-05-09T16:31:29.967Z,1.40
2024-05-09T16:34:35.081Z,1.15
2024-05-09T16:37:40.451Z,1.33
2024-05-09T16:40:45.696Z,1.20
2024-05-09T16:43:48.256Z,1.50
2024-05-09T16:46:53.368Z,1.30
2024-05-09T16:49:55.832Z,1.20
2024-05-09T16:53:07.179Z,1.20
2024-05-09T16:56:10.073Z,1.40
2024-05-09T16:59:15.297Z,1.80
2024-05-09T17:02:18.104Z,1.60
2024-05-09T17:05:24.325Z,1.10
2024-05-09T17:08:32.357Z,1.00
2024-05-09T17:11:37.607Z,1.30
2024-05-09T17:14:42.635Z,1.10
2024-05-09T17:17:48.326Z,0.82
2024-05-09T17:20:54.707Z,1.15
2024-05-09T17:24:00.331Z,1.10
2024-05-09T17:27:05.493Z,1.20
2024-05-09T17:30:12.512Z,1.13
2024-05-09T17:33:20.309Z,1.10
2024-05-09T17:36:22.797Z,1.00
2024-05-09T17:39:30.481Z,1.10
2024-05-09T17:42:33.338Z,1.10
2024-05-09T17:45:39.468Z,1.13
2024-05-09T17:48:43.027Z,0.90
2024-05-09T17:51:54.243Z,1.02
2024-05-09T17:55:02.334Z,1.05
2024-05-09T17:58:08.105Z,1.10
2024-05-09T18:01:10.682Z,1.15
2024-05-09T18:04:16.028Z,1.23
2024-05-09T18:07:18.775Z,1.15
2024-05-09T18:10:33.733Z,1.10
2024-05-09T18:13:42.715Z,1.00
2024-05-09T18:16:48.466Z,1.30
2024-05-09T18:19:50.854Z,1.20
2024-05-09T18:22:56.001Z,1.00
2024-05-09T18:26:01.555Z,1.10
2024-05-09T18:29:07.168Z,1.20
2024-05-09T18:32:12.167Z,1.30
2024-05-09T18:35:14.881Z,0.90
2024-05-09T18:38:25.446Z,0.95
2024-05-09T18:41:31.206Z,0.90
2024-05-09T18:44:37.780Z,0.90
2024-05-09T18:47:43.324Z,0.85
2024-05-09T18:50:45.751Z,1.20
2024-05-09T18:53:52.482Z,1.02
2024-05-09T18:56:57.987Z,1.17
2024-05-09T19:00:04.176Z,1.80
2024-05-09T19:03:13.033Z,1.13
2024-05-09T19:06:22.818Z,1.00
2024-05-09T19:09:27.915Z,1.17
2024-05-09T19:12:35.889Z,1.30
2024-05-09T19:15:39.800Z,0.90
2024-05-09T19:18:46.411Z,0.95
2024-05-09T19:21:52.074Z,1.10
2024-05-09T19:24:59.346Z,1.50
2024-05-09T19:28:08.401Z,1.02
2024-05-09T19:31:11.460Z,1.00
2024-05-09T19:34:16.796Z,1.00
2024-05-09T19:37:19.571Z,0.90
2024-05-09T19:40:30.724Z,0.90
2024-05-09T19:43:41.075Z,0.90
2024-05-09T19:46:58.842Z,1.00
2024-05-09T19:50:01.547Z,0.90
2024-05-09T19:53:07.108Z,1.13
2024-05-09T19:56:09.587Z,1.10
2024-05-09T19:59:18.043Z,1.10
2024-05-09T20:02:21.196Z,1.30
2024-05-09T20:05:28.510Z,1.30
2024-05-09T20:08:32.167Z,1.00
2024-05-09T20:11:38.875Z,0.98
2024-05-09T20:14:44.485Z,0.90
2024-05-09T20:17:50.084Z,0.90
2024-05-09T20:20:54.105Z,1.50
2024-05-09T20:23:59.662Z,1.10
2024-05-09T20:27:03.061Z,1.10
2024-05-09T20:30:17.251Z,1.10
2024-05-09T20:33:28.251Z,1.30
2024-05-09T20:36:33.554Z,1.20
2024-05-09T20:39:36.336Z,1.40
2024-05-09T20:42:41.841Z,1.10
2024-05-09T20:45:47.172Z,1.20
2024-05-09T20:48:54.897Z,1.10
2024-05-09T20:51:57.870Z,1.08
2024-05-09T20:55:02.929Z,1.08
2024-05-09T20:58:05.768Z,1.30
2024-05-09T21:01:13.653Z,1.27
2024-05-09T21:04:24.111Z,1.40
2024-05-09T21:07:26.817Z,1.20
2024-05-09T21:10:33.576Z,1.23
2024-05-09T21:13:36.739Z,1.20
2024-05-09T21:16:44.796Z,1.45
2024-05-09T21:19:47.350Z,1.00
2024-05-09T21:22:52.407Z,1.20
2024-05-09T21:25:54.899Z,1.30
2024-05-09T21:28:59.911Z,1.20
2024-05-09T21:32:05.475Z,1.23
2024-05-09T21:35:10.599Z,1.63
2024-05-09T21:38:15.204Z,1.30
2024-05-09T21:41:20.290Z,1.35
2024-05-09T21:44:22.729Z,1.30
2024-05-09T21:47:30.452Z,1.30
2024-05-09T21:50:39.381Z,1.13
2024-05-09T21:53:46.569Z,1.10
2024-05-09T21:56:48.924Z,1.10
2024-05-09T21:59:53.895Z,1.30
2024-05-09T22:02:58.994Z,1.30
2024-05-09T22:06:04.001Z,1.40
2024-05-09T22:09:09.030Z,1.88
2024-05-09T22:12:11.620Z,1.48
2024-05-09T22:15:17.031Z,1.27
2024-05-09T22:18:22.029Z,1.50
2024-05-09T22:21:26.902Z,1.30
2024-05-09T22:24:29.373Z,1.30
2024-05-09T22:27:34.491Z,1.20
2024-05-09T22:30:39.582Z,1.52
2024-05-09T22:33:48.625Z,1.35
2024-05-09T22:36:51.224Z,1.23
2024-05-09T22:39:56.267Z,1.50
2024-05-09T22:42:58.754Z,1.52
2024-05-09T22:46:05.291Z,1.30
2024-05-09T22:49:10.573Z,1.48
2024-05-09T22:52:15.939Z,1.67
2024-05-09T22:55:21.054Z,1.38
2024-05-09T22:58:26.463Z,1.27
2024-05-09T23:01:29.086Z,2.05
2024-05-09T23:04:37.516Z,1.70
2024-05-09T23:07:42.575Z,1.40
2024-05-09T23:10:45.018Z,1.38
2024-05-09T23:13:51.939Z,1.70
2024-05-09T23:16:56.926Z,1.67
2024-05-09T23:20:02.221Z,1.95
2024-05-09T23:23:09.003Z,1.90
2024-05-09T23:26:11.999Z,1.90
2024-05-09T23:29:16.880Z,1.90
2024-05-09T23:32:19.407Z,2.05
2024-05-09T23:35:27.078Z,1.90
2024-05-09T23:38:29.357Z,2.17
2024-05-09T23:41:34.491Z,1.90
2024-05-09T23:44:36.966Z,2.08
2024-05-09T23:47:42.223Z,2.42
2024-05-09T23:50:50.076Z,2.10
2024-05-09T23:53:52.649Z,2.00
2024-05-09T23:56:57.601Z,2.13
